sensor_id;sensor_type;location;lat;lon;timestamp;temperature;humidity
21197;DHT22;10756;51.014;3.786;2022-09-09T00:04:03;15.60;99.90
21197;DHT22;10756;51.014;3.786;2022-09-09T00:09:19;15.70;99.90
21197;DHT22;10756;51.014;3.786;2022-09-09T00:11:51;15.70;99.90
21197;DHT22;10756;51.014;3.786;2022-09-09T00:14:29;15.60;99.90
21197;DHT22;10756;51.014;3.786;2022-09-09T00:17:01;15.30;99.90
21197;DHT22;10756;51.014;3.786;2022-09-09T00:19:37;15.50;99.90
21197;DHT22;10756;51.014;3.786;2022-09-09T00:22:17;15.30;99.90
21197;DHT22;10756;51.014;3.786;2022-09-09T00:24:54;15.30;99.90
21197;DHT22;10756;51.014;3.786;2022-09-09T00:32:37;15.20;99.90
21197;DHT22;10756;51.014;3.786;2022-09-09T00:35:14;15.20;99.90
21197;DHT22;10756;51.014;3.786;2022-09-09T00:37:42;15.30;99.90
21197;DHT22;10756;51.014;3.786;2022-09-09T00:40:22;15.20;99.90
21197;DHT22;10756;51.014;3.786;2022-09-09T00:42:49;15.40;99.90
21197;DHT22;10756;51.014;3.786;2022-09-09T00:47:53;15.60;99.90
21197;DHT22;10756;51.014;3.786;2022-09-09T00:53:19;15.50;99.90
21197;DHT22;10756;51.014;3.786;2022-09-09T00:58:30;15.20;99.90
21197;DHT22;10756;51.014;3.786;2022-09-09T01:01:10;15.10;99.90
21197;DHT22;10756;51.014;3.786;2022-09-09T01:03:50;15.20;99.90
21197;DHT22;10756;51.014;3.786;2022-09-09T01:06:30;15.10;99.90
21197;DHT22;10756;51.014;3.786;2022-09-09T01:11:55;15.10;99.90
21197;DHT22;10756;51.014;3.786;2022-09-09T01:17:14;15.10;99.90
21197;DHT22;10756;51.014;3.786;2022-09-09T01:27:40;15.20;99.90
21197;DHT22;10756;51.014;3.786;2022-09-09T01:30:11;15.20;99.90
21197;DHT22;10756;51.014;3.786;2022-09-09T01:35:09;15.10;99.90
21197;DHT22;10756;51.014;3.786;2022-09-09T01:37:36;15.20;99.90
21197;DHT22;10756;51.014;3.786;2022-09-09T01:40:02;15.20;99.90
21197;DHT22;10756;51.014;3.786;2022-09-09T01:42:28;15.20;99.90
21197;DHT22;10756;51.014;3.786;2022-09-09T01:44:53;15.20;99.90
21197;DHT22;10756;51.014;3.786;2022-09-09T01:47:20;15.20;99.90
21197;DHT22;10756;51.014;3.786;2022-09-09T01:49:46;15.10;99.90
21197;DHT22;10756;51.014;3.786;2022-09-09T01:52:11;15.20;99.90
21197;DHT22;10756;51.014;3.786;2022-09-09T01:54:37;15.00;99.90
21197;DHT22;10756;51.014;3.786;2022-09-09T01:59:52;15.30;99.90
21197;DHT22;10756;51.014;3.786;2022-09-09T02:02:30;15.20;99.90
21197;DHT22;10756;51.014;3.786;2022-09-09T02:07:41;15.40;99.90
21197;DHT22;10756;51.014;3.786;2022-09-09T02:13:05;15.30;99.90
21197;DHT22;10756;51.014;3.786;2022-09-09T02:18:21;15.30;99.90
21197;DHT22;10756;51.014;3.786;2022-09-09T02:20:50;15.10;99.90
21197;DHT22;10756;51.014;3.786;2022-09-09T02:23:17;15.00;99.90
21197;DHT22;10756;51.014;3.786;2022-09-09T02:25:43;15.00;99.90
21197;DHT22;10756;51.014;3.786;2022-09-09T02:28:10;15.10;99.90
21197;DHT22;10756;51.014;3.786;2022-09-09T02:30:39;15.10;99.90
21197;DHT22;10756;51.014;3.786;2022-09-09T02:33:07;15.20;99.90
21197;DHT22;10756;51.014;3.786;2022-09-09T02:35:36;15.20;99.90
21197;DHT22;10756;51.014;3.786;2022-09-09T02:38:08;15.20;99.90
21197;DHT22;10756;51.014;3.786;2022-09-09T02:40:34;15.20;99.90
21197;DHT22;10756;51.014;3.786;2022-09-09T02:43:00;15.20;99.90
21197;DHT22;10756;51.014;3.786;2022-09-09T02:45:31;15.40;99.90
21197;DHT22;10756;51.014;3.786;2022-09-09T02:48:17;15.30;99.90
21197;DHT22;10756;51.014;3.786;2022-09-09T02:50:59;15.20;99.90
21197;DHT22;10756;51.014;3.786;2022-09-09T02:56:17;15.20;99.90
21197;DHT22;10756;51.014;3.786;2022-09-09T02:58:43;15.40;99.90
21197;DHT22;10756;51.014;3.786;2022-09-09T03:01:09;15.40;99.90
21197;DHT22;10756;51.014;3.786;2022-09-09T03:03:35;15.30;99.90
21197;DHT22;10756;51.014;3.786;2022-09-09T03:06:01;15.40;99.90
21197;DHT22;10756;51.014;3.786;2022-09-09T03:08:26;15.40;99.90
21197;DHT22;10756;51.014;3.786;2022-09-09T03:10:54;15.50;99.90
21197;DHT22;10756;51.014;3.786;2022-09-09T03:13:20;15.50;99.90
21197;DHT22;10756;51.014;3.786;2022-09-09T03:15:47;15.50;99.90
21197;DHT22;10756;51.014;3.786;2022-09-09T03:18:13;15.40;99.90
21197;DHT22;10756;51.014;3.786;2022-09-09T03:20:39;15.40;99.90
21197;DHT22;10756;51.014;3.786;2022-09-09T03:23:07;15.50;99.90
21197;DHT22;10756;51.014;3.786;2022-09-09T03:25:33;15.50;99.90
21197;DHT22;10756;51.014;3.786;2022-09-09T03:27:59;15.50;99.90
21197;DHT22;10756;51.014;3.786;2022-09-09T03:30:26;15.50;99.90
21197;DHT22;10756;51.014;3.786;2022-09-09T03:32:52;15.50;99.90
21197;DHT22;10756;51.014;3.786;2022-09-09T03:35:18;15.50;99.90
21197;DHT22;10756;51.014;3.786;2022-09-09T03:37:43;15.40;99.90
21197;DHT22;10756;51.014;3.786;2022-09-09T03:40:15;15.50;99.90
21197;DHT22;10756;51.014;3.786;2022-09-09T03:42:41;15.50;99.90
21197;DHT22;10756;51.014;3.786;2022-09-09T03:45:08;15.50;99.90
21197;DHT22;10756;51.014;3.786;2022-09-09T03:47:39;15.50;99.90
21197;DHT22;10756;51.014;3.786;2022-09-09T03:50:06;15.60;99.90
21197;DHT22;10756;51.014;3.786;2022-09-09T03:52:35;15.70;99.90
21197;DHT22;10756;51.014;3.786;2022-09-09T03:55:01;15.70;99.90
21197;DHT22;10756;51.014;3.786;2022-09-09T03:57:27;15.70;99.90
21197;DHT22;10756;51.014;3.786;2022-09-09T03:59:52;15.70;99.90
21197;DHT22;10756;51.014;3.786;2022-09-09T04:02:18;15.70;99.90
21197;DHT22;10756;51.014;3.786;2022-09-09T04:04:44;15.60;99.90
21197;DHT22;10756;51.014;3.786;2022-09-09T04:07:10;15.60;99.90
21197;DHT22;10756;51.014;3.786;2022-09-09T04:09:37;15.60;99.90
21197;DHT22;10756;51.014;3.786;2022-09-09T04:12:05;15.60;99.90
21197;DHT22;10756;51.014;3.786;2022-09-09T04:14:32;15.60;99.90
21197;DHT22;10756;51.014;3.786;2022-09-09T04:16:57;15.70;99.90
21197;DHT22;10756;51.014;3.786;2022-09-09T04:19:25;15.70;99.90
21197;DHT22;10756;51.014;3.786;2022-09-09T04:21:53;15.70;99.90
21197;DHT22;10756;51.014;3.786;2022-09-09T04:24:19;15.70;99.90
21197;DHT22;10756;51.014;3.786;2022-09-09T04:26:45;15.70;99.90
21197;DHT22;10756;51.014;3.786;2022-09-09T04:29:12;15.70;99.90
21197;DHT22;10756;51.014;3.786;2022-09-09T04:31:37;15.70;99.90
21197;DHT22;10756;51.014;3.786;2022-09-09T04:34:10;15.70;99.90
21197;DHT22;10756;51.014;3.786;2022-09-09T04:36:35;15.70;99.90
21197;DHT22;10756;51.014;3.786;2022-09-09T04:39:01;15.60;99.90
21197;DHT22;10756;51.014;3.786;2022-09-09T04:41:27;15.70;99.90
21197;DHT22;10756;51.014;3.786;2022-09-09T04:43:53;15.70;99.90
21197;DHT22;10756;51.014;3.786;2022-09-09T04:46:22;15.70;99.90
21197;DHT22;10756;51.014;3.786;2022-09-09T04:48:49;15.70;99.90
21197;DHT22;10756;51.014;3.786;2022-09-09T04:51:22;15.70;99.90
21197;DHT22;10756;51.014;3.786;2022-09-09T04:53:48;15.70;99.90
21197;DHT22;10756;51.014;3.786;2022-09-09T04:56:19;15.70;99.90
21197;DHT22;10756;51.014;3.786;2022-09-09T04:58:44;15.60;99.90
21197;DHT22;10756;51.014;3.786;2022-09-09T05:01:16;15.60;99.90
21197;DHT22;10756;51.014;3.786;2022-09-09T05:03:47;15.60;99.90
21197;DHT22;10756;51.014;3.786;2022-09-09T05:06:15;15.70;99.90
21197;DHT22;10756;51.014;3.786;2022-09-09T05:08:42;15.70;99.90
21197;DHT22;10756;51.014;3.786;2022-09-09T05:11:21;15.60;99.90
21197;DHT22;10756;51.014;3.786;2022-09-09T05:14:01;15.50;99.90
21197;DHT22;10756;51.014;3.786;2022-09-09T05:16:26;15.60;99.90
21197;DHT22;10756;51.014;3.786;2022-09-09T05:18:59;15.60;99.90
21197;DHT22;10756;51.014;3.786;2022-09-09T05:21:25;15.60;99.90
21197;DHT22;10756;51.014;3.786;2022-09-09T05:23:55;15.70;99.90
21197;DHT22;10756;51.014;3.786;2022-09-09T05:26:30;15.70;99.90
21197;DHT22;10756;51.014;3.786;2022-09-09T05:29:02;15.60;99.90
21197;DHT22;10756;51.014;3.786;2022-09-09T05:31:30;15.80;99.90
21197;DHT22;10756;51.014;3.786;2022-09-09T05:33:56;15.80;99.90
21197;DHT22;10756;51.014;3.786;2022-09-09T05:36:22;15.80;99.90
21197;DHT22;10756;51.014;3.786;2022-09-09T05:38:48;15.70;99.90
21197;DHT22;10756;51.014;3.786;2022-09-09T05:41:41;15.70;99.90
21197;DHT22;10756;51.014;3.786;2022-09-09T05:44:39;15.80;99.90
21197;DHT22;10756;51.014;3.786;2022-09-09T05:47:29;15.80;99.90
21197;DHT22;10756;51.014;3.786;2022-09-09T05:50:03;15.90;99.90
21197;DHT22;10756;51.014;3.786;2022-09-09T05:52:32;16.00;99.90
21197;DHT22;10756;51.014;3.786;2022-09-09T05:54:58;16.00;99.90
21197;DHT22;10756;51.014;3.786;2022-09-09T05:57:25;16.00;99.90
21197;DHT22;10756;51.014;3.786;2022-09-09T05:59:50;15.90;99.90
21197;DHT22;10756;51.014;3.786;2022-09-09T06:05:06;16.00;99.90
21197;DHT22;10756;51.014;3.786;2022-09-09T06:07:37;16.10;99.90
21197;DHT22;10756;51.014;3.786;2022-09-09T06:10:07;16.20;99.90
21197;DHT22;10756;51.014;3.786;2022-09-09T06:12:36;16.10;99.90
21197;DHT22;10756;51.014;3.786;2022-09-09T06:15:08;16.00;99.90
21197;DHT22;10756;51.014;3.786;2022-09-09T06:17:34;15.90;99.90
21197;DHT22;10756;51.014;3.786;2022-09-09T06:20:00;15.70;99.90
21197;DHT22;10756;51.014;3.786;2022-09-09T06:22:25;15.50;99.90
21197;DHT22;10756;51.014;3.786;2022-09-09T06:24:51;15.40;99.90
21197;DHT22;10756;51.014;3.786;2022-09-09T06:27:16;15.30;99.90
21197;DHT22;10756;51.014;3.786;2022-09-09T06:29:45;15.20;99.90
21197;DHT22;10756;51.014;3.786;2022-09-09T06:32:10;15.20;99.90
21197;DHT22;10756;51.014;3.786;2022-09-09T06:34:36;15.20;99.90
21197;DHT22;10756;51.014;3.786;2022-09-09T06:37:02;15.10;99.90
21197;DHT22;10756;51.014;3.786;2022-09-09T06:39:27;15.20;99.90
21197;DHT22;10756;51.014;3.786;2022-09-09T06:41:57;15.20;99.90
21197;DHT22;10756;51.014;3.786;2022-09-09T06:44:28;15.30;99.90
21197;DHT22;10756;51.014;3.786;2022-09-09T06:46:57;15.30;99.90
21197;DHT22;10756;51.014;3.786;2022-09-09T06:49:25;15.30;99.90
21197;DHT22;10756;51.014;3.786;2022-09-09T06:51:51;15.40;99.90
21197;DHT22;10756;51.014;3.786;2022-09-09T06:54:17;15.40;99.90
21197;DHT22;10756;51.014;3.786;2022-09-09T06:56:43;15.40;99.90
21197;DHT22;10756;51.014;3.786;2022-09-09T06:59:14;15.50;99.90
21197;DHT22;10756;51.014;3.786;2022-09-09T07:01:49;15.50;99.90
21197;DHT22;10756;51.014;3.786;2022-09-09T07:04:26;15.60;99.90
21197;DHT22;10756;51.014;3.786;2022-09-09T07:06:52;15.70;99.90
21197;DHT22;10756;51.014;3.786;2022-09-09T07:09:18;15.80;99.90
21197;DHT22;10756;51.014;3.786;2022-09-09T07:11:46;15.90;99.90
21197;DHT22;10756;51.014;3.786;2022-09-09T07:14:12;15.90;99.90
21197;DHT22;10756;51.014;3.786;2022-09-09T07:17:01;16.00;99.90
21197;DHT22;10756;51.014;3.786;2022-09-09T07:19:27;16.00;99.90
21197;DHT22;10756;51.014;3.786;2022-09-09T07:21:52;15.90;99.90
21197;DHT22;10756;51.014;3.786;2022-09-09T07:24:18;15.90;99.90
21197;DHT22;10756;51.014;3.786;2022-09-09T07:26:54;16.00;99.90
21197;DHT22;10756;51.014;3.786;2022-09-09T07:29:20;16.20;99.90
21197;DHT22;10756;51.014;3.786;2022-09-09T07:31:51;16.30;99.90
21197;DHT22;10756;51.014;3.786;2022-09-09T07:34:17;16.40;99.90
21197;DHT22;10756;51.014;3.786;2022-09-09T07:36:45;16.70;99.90
21197;DHT22;10756;51.014;3.786;2022-09-09T07:42:05;16.80;99.90
21197;DHT22;10756;51.014;3.786;2022-09-09T07:44:40;16.90;99.90
21197;DHT22;10756;51.014;3.786;2022-09-09T07:47:06;16.80;99.90
21197;DHT22;10756;51.014;3.786;2022-09-09T07:49:32;16.80;99.90
21197;DHT22;10756;51.014;3.786;2022-09-09T07:52:01;16.90;99.90
21197;DHT22;10756;51.014;3.786;2022-09-09T07:54:27;16.90;99.90
21197;DHT22;10756;51.014;3.786;2022-09-09T07:56:53;16.80;99.90
21197;DHT22;10756;51.014;3.786;2022-09-09T07:59:22;16.80;99.90
21197;DHT22;10756;51.014;3.786;2022-09-09T08:01:49;16.80;99.90
21197;DHT22;10756;51.014;3.786;2022-09-09T08:04:18;16.70;99.90
21197;DHT22;10756;51.014;3.786;2022-09-09T08:09:17;16.30;99.90
21197;DHT22;10756;51.014;3.786;2022-09-09T08:11:46;16.10;99.90
21197;DHT22;10756;51.014;3.786;2022-09-09T08:14:13;16.00;99.90
21197;DHT22;10756;51.014;3.786;2022-09-09T08:16:42;15.80;99.90
21197;DHT22;10756;51.014;3.786;2022-09-09T08:19:08;15.70;99.90
21197;DHT22;10756;51.014;3.786;2022-09-09T08:21:36;15.70;99.90
21197;DHT22;10756;51.014;3.786;2022-09-09T08:24:03;15.70;99.90
21197;DHT22;10756;51.014;3.786;2022-09-09T08:26:32;15.70;99.90
21197;DHT22;10756;51.014;3.786;2022-09-09T08:29:00;15.70;99.90
21197;DHT22;10756;51.014;3.786;2022-09-09T08:31:53;15.50;99.90
21197;DHT22;10756;51.014;3.786;2022-09-09T08:34:24;15.60;99.90
21197;DHT22;10756;51.014;3.786;2022-09-09T08:39:20;15.50;99.90
21197;DHT22;10756;51.014;3.786;2022-09-09T08:42:05;15.60;99.90
21197;DHT22;10756;51.014;3.786;2022-09-09T08:47:41;15.70;99.90
21197;DHT22;10756;51.014;3.786;2022-09-09T08:58:34;16.00;99.90
21197;DHT22;10756;51.014;3.786;2022-09-09T09:01:16;16.00;99.90
21197;DHT22;10756;51.014;3.786;2022-09-09T09:14:43;16.20;99.90
21197;DHT22;10756;51.014;3.786;2022-09-09T09:17:20;16.20;99.90
21197;DHT22;10756;51.014;3.786;2022-09-09T09:19:47;16.30;99.90
21197;DHT22;10756;51.014;3.786;2022-09-09T09:24:56;16.40;99.90
21197;DHT22;10756;51.014;3.786;2022-09-09T09:27:33;16.40;99.90
21197;DHT22;10756;51.014;3.786;2022-09-09T09:30:25;16.60;99.90
21197;DHT22;10756;51.014;3.786;2022-09-09T09:35:23;16.80;99.90
21197;DHT22;10756;51.014;3.786;2022-09-09T09:37:55;17.00;99.90
21197;DHT22;10756;51.014;3.786;2022-09-09T09:40:22;17.10;99.90
21197;DHT22;10756;51.014;3.786;2022-09-09T09:43:01;17.10;99.90
21197;DHT22;10756;51.014;3.786;2022-09-09T09:45:33;17.20;99.90
21197;DHT22;10756;51.014;3.786;2022-09-09T09:48:10;17.10;99.90
21197;DHT22;10756;51.014;3.786;2022-09-09T09:53:29;17.20;99.90
21197;DHT22;10756;51.014;3.786;2022-09-09T09:56:05;17.10;99.90
21197;DHT22;10756;51.014;3.786;2022-09-09T09:58:38;17.10;99.90
21197;DHT22;10756;51.014;3.786;2022-09-09T10:01:32;17.10;99.90
21197;DHT22;10756;51.014;3.786;2022-09-09T10:06:41;17.10;99.90
21197;DHT22;10756;51.014;3.786;2022-09-09T10:09:20;17.20;99.90
21197;DHT22;10756;51.014;3.786;2022-09-09T10:14:42;17.30;99.90
21197;DHT22;10756;51.014;3.786;2022-09-09T10:19:45;17.20;99.90
21197;DHT22;10756;51.014;3.786;2022-09-09T10:22:28;17.20;99.90
21197;DHT22;10756;51.014;3.786;2022-09-09T10:30:18;17.40;99.90
21197;DHT22;10756;51.014;3.786;2022-09-09T10:35:49;17.30;99.90
21197;DHT22;10756;51.014;3.786;2022-09-09T10:51:23;17.90;99.90
21197;DHT22;10756;51.014;3.786;2022-09-09T10:56:38;18.10;99.90
21197;DHT22;10756;51.014;3.786;2022-09-09T11:01:38;17.80;99.90
21197;DHT22;10756;51.014;3.786;2022-09-09T11:04:17;17.80;99.90
21197;DHT22;10756;51.014;3.786;2022-09-09T11:06:48;17.90;99.90
21197;DHT22;10756;51.014;3.786;2022-09-09T11:09:21;17.80;99.90
21197;DHT22;10756;51.014;3.786;2022-09-09T11:11:58;17.80;99.90
21197;DHT22;10756;51.014;3.786;2022-09-09T11:14:54;18.00;99.90
21197;DHT22;10756;51.014;3.786;2022-09-09T11:17:36;18.00;99.90
21197;DHT22;10756;51.014;3.786;2022-09-09T11:20:05;18.30;99.90
21197;DHT22;10756;51.014;3.786;2022-09-09T11:22:48;18.50;99.90
21197;DHT22;10756;51.014;3.786;2022-09-09T11:28:06;19.20;99.90
21197;DHT22;10756;51.014;3.786;2022-09-09T11:36:34;19.20;99.90
21197;DHT22;10756;51.014;3.786;2022-09-09T11:42:20;19.70;99.90
21197;DHT22;10756;51.014;3.786;2022-09-09T11:44:55;20.00;99.90
21197;DHT22;10756;51.014;3.786;2022-09-09T11:47:27;19.60;99.90
21197;DHT22;10756;51.014;3.786;2022-09-09T11:52:45;19.10;99.90
21197;DHT22;10756;51.014;3.786;2022-09-09T11:58:18;18.80;99.90
21197;DHT22;10756;51.014;3.786;2022-09-09T12:00:51;18.80;99.90
21197;DHT22;10756;51.014;3.786;2022-09-09T12:06:11;18.80;99.90
21197;DHT22;10756;51.014;3.786;2022-09-09T12:11:29;20.00;99.90
21197;DHT22;10756;51.014;3.786;2022-09-09T12:13:58;20.10;99.90
21197;DHT22;10756;51.014;3.786;2022-09-09T12:16:50;20.10;99.90
21197;DHT22;10756;51.014;3.786;2022-09-09T12:19:21;19.80;99.90
21197;DHT22;10756;51.014;3.786;2022-09-09T12:22:00;20.00;99.90
21197;DHT22;10756;51.014;3.786;2022-09-09T12:24:48;21.00;99.90
21197;DHT22;10756;51.014;3.786;2022-09-09T12:27:42;20.90;99.90
21197;DHT22;10756;51.014;3.786;2022-09-09T12:30:29;20.60;99.90
21197;DHT22;10756;51.014;3.786;2022-09-09T12:39:43;21.50;99.90
21197;DHT22;10756;51.014;3.786;2022-09-09T12:42:17;22.10;99.90
21197;DHT22;10756;51.014;3.786;2022-09-09T12:44:52;21.80;99.90
21197;DHT22;10756;51.014;3.786;2022-09-09T12:47:45;21.70;99.90
21197;DHT22;10756;51.014;3.786;2022-09-09T12:50:22;21.00;99.90
21197;DHT22;10756;51.014;3.786;2022-09-09T12:52:59;20.90;99.90
21197;DHT22;10756;51.014;3.786;2022-09-09T12:55:53;21.10;99.90
21197;DHT22;10756;51.014;3.786;2022-09-09T12:58:25;21.20;99.90
21197;DHT22;10756;51.014;3.786;2022-09-09T13:01:26;20.90;99.90
21197;DHT22;10756;51.014;3.786;2022-09-09T13:03:55;20.20;99.90
21197;DHT22;10756;51.014;3.786;2022-09-09T13:06:45;19.70;99.90
21197;DHT22;10756;51.014;3.786;2022-09-09T13:09:39;19.20;99.90
21197;DHT22;10756;51.014;3.786;2022-09-09T13:18:43;19.00;99.90
21197;DHT22;10756;51.014;3.786;2022-09-09T13:28:28;21.40;99.90
21197;DHT22;10756;51.014;3.786;2022-09-09T13:31:35;21.00;99.90
21197;DHT22;10756;51.014;3.786;2022-09-09T13:37:48;20.20;99.90
21197;DHT22;10756;51.014;3.786;2022-09-09T13:46:34;21.80;99.90
21197;DHT22;10756;51.014;3.786;2022-09-09T13:49:40;21.50;99.90
21197;DHT22;10756;51.014;3.786;2022-09-09T13:52:15;20.50;99.90
21197;DHT22;10756;51.014;3.786;2022-09-09T13:55:02;20.20;99.90
21197;DHT22;10756;51.014;3.786;2022-09-09T13:57:28;20.00;99.90
21197;DHT22;10756;51.014;3.786;2022-09-09T13:59:57;19.60;99.90
21197;DHT22;10756;51.014;3.786;2022-09-09T14:05:46;18.40;99.90
21197;DHT22;10756;51.014;3.786;2022-09-09T14:08:25;18.20;99.90
21197;DHT22;10756;51.014;3.786;2022-09-09T14:14:53;18.00;99.90
21197;DHT22;10756;51.014;3.786;2022-09-09T14:17:38;17.90;99.90
21197;DHT22;10756;51.014;3.786;2022-09-09T14:20:06;17.90;99.90
21197;DHT22;10756;51.014;3.786;2022-09-09T14:22:43;17.80;99.90
21197;DHT22;10756;51.014;3.786;2022-09-09T14:25:09;17.80;99.90
21197;DHT22;10756;51.014;3.786;2022-09-09T14:27:35;17.80;99.90
21197;DHT22;10756;51.014;3.786;2022-09-09T14:30:00;17.80;99.90
21197;DHT22;10756;51.014;3.786;2022-09-09T14:32:40;17.80;99.90
21197;DHT22;10756;51.014;3.786;2022-09-09T14:35:27;18.30;99.90
21197;DHT22;10756;51.014;3.786;2022-09-09T14:38:02;19.10;99.90
21197;DHT22;10756;51.014;3.786;2022-09-09T14:40:28;19.10;99.90
21197;DHT22;10756;51.014;3.786;2022-09-09T14:43:48;19.10;99.90
21197;DHT22;10756;51.014;3.786;2022-09-09T14:46:12;19.30;99.90
21197;DHT22;10756;51.014;3.786;2022-09-09T14:48:49;20.00;99.90
21197;DHT22;10756;51.014;3.786;2022-09-09T14:51:24;20.30;99.90
21197;DHT22;10756;51.014;3.786;2022-09-09T14:53:59;21.00;99.90
21197;DHT22;10756;51.014;3.786;2022-09-09T14:56:48;21.20;99.90
21197;DHT22;10756;51.014;3.786;2022-09-09T14:59:22;21.30;99.90
21197;DHT22;10756;51.014;3.786;2022-09-09T15:01:48;21.90;99.90
21197;DHT22;10756;51.014;3.786;2022-09-09T15:04:42;22.90;99.90
21197;DHT22;10756;51.014;3.786;2022-09-09T15:07:26;23.60;99.90
21197;DHT22;10756;51.014;3.786;2022-09-09T15:10:12;23.90;99.90
21197;DHT22;10756;51.014;3.786;2022-09-09T15:12:38;24.70;99.90
21197;DHT22;10756;51.014;3.786;2022-09-09T15:15:05;24.00;99.90
21197;DHT22;10756;51.014;3.786;2022-09-09T15:17:31;22.70;99.90
21197;DHT22;10756;51.014;3.786;2022-09-09T15:20:23;22.70;99.90
21197;DHT22;10756;51.014;3.786;2022-09-09T15:23:13;22.60;99.90
21197;DHT22;10756;51.014;3.786;2022-09-09T15:25:56;21.70;99.90
21197;DHT22;10756;51.014;3.786;2022-09-09T15:28:25;21.90;99.90
21197;DHT22;10756;51.014;3.786;2022-09-09T15:30:52;22.30;99.90
21197;DHT22;10756;51.014;3.786;2022-09-09T15:33:19;21.70;99.90
21197;DHT22;10756;51.014;3.786;2022-09-09T15:42:40;20.10;99.90
21197;DHT22;10756;51.014;3.786;2022-09-09T15:45:26;19.80;99.90
21197;DHT22;10756;51.014;3.786;2022-09-09T15:48:00;19.70;99.90
21197;DHT22;10756;51.014;3.786;2022-09-09T15:50:44;19.70;99.90
21197;DHT22;10756;51.014;3.786;2022-09-09T15:53:37;19.50;99.90
21197;DHT22;10756;51.014;3.786;2022-09-09T15:56:06;19.70;99.90
21197;DHT22;10756;51.014;3.786;2022-09-09T15:59:04;19.60;99.90
21197;DHT22;10756;51.014;3.786;2022-09-09T16:14:10;19.50;99.90
21197;DHT22;10756;51.014;3.786;2022-09-09T16:16:48;19.50;99.90
21197;DHT22;10756;51.014;3.786;2022-09-09T16:33:15;20.10;99.90
21197;DHT22;10756;51.014;3.786;2022-09-09T16:39:27;19.90;99.90
21197;DHT22;10756;51.014;3.786;2022-09-09T16:42:23;19.80;99.90
21197;DHT22;10756;51.014;3.786;2022-09-09T16:55:12;19.90;99.90
21197;DHT22;10756;51.014;3.786;2022-09-09T16:57:38;19.60;99.90
21197;DHT22;10756;51.014;3.786;2022-09-09T17:00:24;19.30;99.90
21197;DHT22;10756;51.014;3.786;2022-09-09T17:06:22;18.90;99.90
21197;DHT22;10756;51.014;3.786;2022-09-09T17:08:57;18.80;99.90
21197;DHT22;10756;51.014;3.786;2022-09-09T17:11:41;18.30;99.90
21197;DHT22;10756;51.014;3.786;2022-09-09T17:17:22;17.40;99.90
21197;DHT22;10756;51.014;3.786;2022-09-09T17:19:51;17.30;99.90
21197;DHT22;10756;51.014;3.786;2022-09-09T17:22:29;17.20;99.90
21197;DHT22;10756;51.014;3.786;2022-09-09T17:24:58;17.10;99.90
21197;DHT22;10756;51.014;3.786;2022-09-09T17:33:54;17.70;99.90
21197;DHT22;10756;51.014;3.786;2022-09-09T17:36:32;17.80;99.90
21197;DHT22;10756;51.014;3.786;2022-09-09T17:39:07;17.70;99.90
21197;DHT22;10756;51.014;3.786;2022-09-09T17:41:54;17.60;99.90
21197;DHT22;10756;51.014;3.786;2022-09-09T17:44:27;17.50;99.90
21197;DHT22;10756;51.014;3.786;2022-09-09T17:47:04;17.40;99.90
21197;DHT22;10756;51.014;3.786;2022-09-09T17:49:31;17.40;99.90
21197;DHT22;10756;51.014;3.786;2022-09-09T17:52:00;17.30;99.90
21197;DHT22;10756;51.014;3.786;2022-09-09T17:54:28;17.30;99.90
21197;DHT22;10756;51.014;3.786;2022-09-09T17:56:53;17.30;99.90
21197;DHT22;10756;51.014;3.786;2022-09-09T17:59:22;17.30;99.90
21197;DHT22;10756;51.014;3.786;2022-09-09T18:01:53;17.30;99.90
21197;DHT22;10756;51.014;3.786;2022-09-09T18:04:19;17.30;99.90
21197;DHT22;10756;51.014;3.786;2022-09-09T18:06:47;17.30;99.90
21197;DHT22;10756;51.014;3.786;2022-09-09T18:09:31;17.20;99.90
21197;DHT22;10756;51.014;3.786;2022-09-09T18:11:57;17.20;99.90
21197;DHT22;10756;51.014;3.786;2022-09-09T18:14:31;17.20;99.90
21197;DHT22;10756;51.014;3.786;2022-09-09T18:16:59;17.10;99.90
21197;DHT22;10756;51.014;3.786;2022-09-09T18:19:27;17.10;99.90
21197;DHT22;10756;51.014;3.786;2022-09-09T18:22:04;17.30;99.90
21197;DHT22;10756;51.014;3.786;2022-09-09T18:24:33;17.20;99.90
21197;DHT22;10756;51.014;3.786;2022-09-09T18:26:58;17.10;99.90
21197;DHT22;10756;51.014;3.786;2022-09-09T18:29:24;17.10;99.90
21197;DHT22;10756;51.014;3.786;2022-09-09T18:31:52;17.10;99.90
21197;DHT22;10756;51.014;3.786;2022-09-09T18:34:19;17.10;99.90
21197;DHT22;10756;51.014;3.786;2022-09-09T18:36:49;17.20;99.90
21197;DHT22;10756;51.014;3.786;2022-09-09T18:39:21;17.30;99.90
21197;DHT22;10756;51.014;3.786;2022-09-09T18:41:49;17.20;99.90
21197;DHT22;10756;51.014;3.786;2022-09-09T18:44:22;17.10;99.90
21197;DHT22;10756;51.014;3.786;2022-09-09T18:46:52;17.10;99.90
21197;DHT22;10756;51.014;3.786;2022-09-09T18:49:20;17.10;99.90
21197;DHT22;10756;51.014;3.786;2022-09-09T18:51:46;17.00;99.90
21197;DHT22;10756;51.014;3.786;2022-09-09T18:54:19;17.00;99.90
21197;DHT22;10756;51.014;3.786;2022-09-09T18:56:46;17.00;99.90
21197;DHT22;10756;51.014;3.786;2022-09-09T18:59:14;16.90;99.90
21197;DHT22;10756;51.014;3.786;2022-09-09T19:01:43;16.90;99.90
21197;DHT22;10756;51.014;3.786;2022-09-09T19:04:09;16.80;99.90
21197;DHT22;10756;51.014;3.786;2022-09-09T19:06:39;16.80;99.90
21197;DHT22;10756;51.014;3.786;2022-09-09T19:09:12;16.80;99.90
21197;DHT22;10756;51.014;3.786;2022-09-09T19:11:38;16.90;99.90
21197;DHT22;10756;51.014;3.786;2022-09-09T19:14:27;16.80;99.90
21197;DHT22;10756;51.014;3.786;2022-09-09T19:17:02;16.90;99.90
21197;DHT22;10756;51.014;3.786;2022-09-09T19:19:45;17.00;99.90
21197;DHT22;10756;51.014;3.786;2022-09-09T19:22:12;16.90;99.90
21197;DHT22;10756;51.014;3.786;2022-09-09T19:24:38;16.90;99.90
21197;DHT22;10756;51.014;3.786;2022-09-09T19:27:06;16.80;99.90
21197;DHT22;10756;51.014;3.786;2022-09-09T19:29:34;16.80;99.90
21197;DHT22;10756;51.014;3.786;2022-09-09T19:32:01;16.80;99.90
21197;DHT22;10756;51.014;3.786;2022-09-09T19:34:27;16.70;99.90
21197;DHT22;10756;51.014;3.786;2022-09-09T19:36:53;16.70;99.90
21197;DHT22;10756;51.014;3.786;2022-09-09T19:39:19;16.70;99.90
21197;DHT22;10756;51.014;3.786;2022-09-09T19:41:46;16.90;99.90
21197;DHT22;10756;51.014;3.786;2022-09-09T19:44:14;16.90;99.90
21197;DHT22;10756;51.014;3.786;2022-09-09T19:46:42;16.80;99.90
21197;DHT22;10756;51.014;3.786;2022-09-09T19:49:09;16.80;99.90
21197;DHT22;10756;51.014;3.786;2022-09-09T19:51:35;16.70;99.90
21197;DHT22;10756;51.014;3.786;2022-09-09T19:54:08;16.80;99.90
21197;DHT22;10756;51.014;3.786;2022-09-09T19:56:36;16.70;99.90
21197;DHT22;10756;51.014;3.786;2022-09-09T19:59:03;16.70;99.90
21197;DHT22;10756;51.014;3.786;2022-09-09T20:01:32;16.70;99.90
21197;DHT22;10756;51.014;3.786;2022-09-09T20:04:00;16.70;99.90
21197;DHT22;10756;51.014;3.786;2022-09-09T20:06:30;16.60;99.90